Necton, United Kingdom
Current Conditions -  °F | °C
As of 11:50 PM on Saturday 22 Nov 2014 (Local Time) from EGYM Reporting Station
Haze Haze  
Wind Chill: 54°   Ceiling: 2400
Heat Index: 54°   Visibility: 1.1mi
Dew Point: 54°   Wind: 2mph
Humidity: 100%   Direction: 140°SE
Pressure: 29.97"   Gusts: NA
Location:  52.65°N, 0.78°E
Report Text: EGYM 222350Z AUTO 14002KT 1800 BR SCT003/// BKN024/// 12/12 Q1015
Loading
Personal Weather Stations






























Interactive Weather Map New forecast layout! Learn more

10-Day Weather Forecast

Advertisements
Track Severe Weather on mobile